Time;durP1;ratioP1;P1;durP2;ratioP2;P2;SDS_P1;SDS_P2;PMS_P1;PMS_P2;Temp;Humidity;BMP_temperature;BMP_pressure;BME280_temperature;BME280_humidity;BME280_pressure;Samples;Min_cycle;Max_cycle;Signal;HPM_P1;HPM_P2
2022/05/17 00:00:51;;;;;;;;;8.00;6.75;;;;;20.65;53.08;101027.72;4939928;28;45560;-68
2022/05/17 00:03:17;;;;;;;;;7.00;7.00;;;;;20.66;53.40;101036.59;4956970;28;46042;-67
2022/05/17 00:05:44;;;;;;;;;7.50;7.50;;;;;20.62;53.97;101032.47;4957186;28;45331;-67
2022/05/17 00:08:10;;;;;;;;;10.50;9.50;;;;;20.62;54.06;101032.47;4940091;28;45316;-65
2022/05/17 00:10:35;;;;;;;;;5.25;5.25;;;;;20.57;53.83;101030.97;4959916;28;45263;-66
2022/05/17 00:13:01;;;;;;;;;8.00;7.25;;;;;20.54;54.00;101033.03;4958009;28;45446;-65
2022/05/17 00:15:26;;;;;;;;;6.25;5.25;;;;;20.51;54.03;101031.44;4957678;28;45262;-67
2022/05/17 00:17:54;;;;;;;;;7.75;7.75;;;;;20.33;54.40;101006.13;4958310;28;45393;-67
2022/05/17 00:20:21;;;;;;;;;8.00;7.25;;;;;20.44;54.64;101031.03;4940534;28;45422;-67
2022/05/17 00:22:47;;;;;;;;;6.50;6.00;;;;;20.26;54.58;101001.22;4959417;28;46135;-67
2022/05/17 00:25:15;;;;;;;;;6.00;5.25;;;;;20.36;54.39;101027.25;4958470;28;45332;-69
2022/05/17 00:27:41;;;;;;;;;6.75;6.75;;;;;20.36;54.91;101024.59;4957671;28;45354;-67
2022/05/17 00:30:08;;;;;;;;;8.25;7.50;;;;;20.35;54.62;101023.72;4959016;28;45398;-69
2022/05/17 00:32:33;;;;;;;;;12.75;9.75;;;;;20.29;54.92;101022.38;4956489;28;46447;-69
2022/05/17 00:34:59;;;;;;;;;6.50;6.50;;;;;20.28;54.96;101023.34;4938740;28;45541;-71
2022/05/17 00:37:25;;;;;;;;;6.00;6.00;;;;;20.26;55.07;101021.72;4956638;28;45309;-69
2022/05/17 00:39:50;;;;;;;;;4.75;4.75;;;;;20.24;55.63;101024.53;4955411;28;45640;-70
2022/05/17 00:42:15;;;;;;;;;6.00;5.75;;;;;20.21;55.54;101023.91;4956642;28;46137;-68
2022/05/17 00:44:44;;;;;;;;;6.00;5.75;;;;;20.17;55.42;101017.94;4956787;28;45295;-70
2022/05/17 00:47:48;;;;;;;;;8.00;8.00;;;;;20.17;55.64;101014.41;4956765;28;45417;-70
2022/05/17 00:50:41;;;;;;;;;8.00;6.00;;;;;20.12;55.99;101020.94;4956698;28;45343;-67
2022/05/17 00:53:11;;;;;;;;;5.00;5.00;;;;;20.08;56.05;101016.78;4955937;28;45377;-65
2022/05/17 00:55:50;;;;;;;;;6.50;6.50;;;;;20.08;55.79;101010.59;4956213;28;45398;-69
2022/05/17 00:58:27;;;;;;;;;5.00;5.00;;;;;20.04;56.61;101006.44;4957712;28;45335;-66
2022/05/17 01:01:02;;;;;;;;;8.25;7.50;;;;;19.99;56.73;101010.28;4956821;28;45793;-66
2022/05/17 01:03:32;;;;;;;;;7.75;7.75;;;;;19.94;56.46;101007.13;4956844;28;46081;-67
2022/05/17 01:05:57;;;;;;;;;7.00;6.25;;;;;19.93;56.58;101010.75;4959482;28;45286;-68
2022/05/17 01:08:25;;;;;;;;;8.25;7.25;;;;;19.90;56.87;101010.13;4960179;28;45321;-69
2022/05/17 01:10:50;;;;;;;;;6.50;6.50;;;;;19.83;56.64;100999.00;4959747;28;45449;-70
2022/05/17 01:16:00;;;;;;;;;6.50;6.00;;;;;19.83;57.06;101009.69;4956797;28;45286;-68
2022/05/17 01:18:30;;;;;;;;;7.00;5.75;;;;;19.82;57.66;101007.97;4954727;28;45265;-69
2022/05/17 01:20:56;;;;;;;;;11.00;9.50;;;;;19.77;57.41;101011.00;4938876;28;45521;-68
2022/05/17 01:23:22;;;;;;;;;8.00;7.75;;;;;19.75;57.09;101004.91;4956412;28;45404;-67
2022/05/17 01:25:47;;;;;;;;;7.25;7.25;;;;;19.71;57.43;100998.09;4956060;28;45367;-69
2022/05/17 01:28:19;;;;;;;;;7.00;7.00;;;;;19.72;57.43;100999.81;4957252;28;45295;-65
2022/05/17 01:30:46;;;;;;;;;6.25;6.25;;;;;19.69;57.93;101000.03;4957323;28;45284;-68
2022/05/17 01:33:17;;;;;;;;;8.50;8.50;;;;;19.59;57.71;100983.81;4955653;28;46404;-69
2022/05/17 01:35:43;;;;;;;;;7.75;5.75;;;;;19.65;58.01;101002.06;4956178;28;45429;-69
2022/05/17 01:38:09;;;;;;;;;7.50;7.50;;;;;19.56;58.04;100997.38;4954646;28;45391;-69
2022/05/17 01:40:36;;;;;;;;;7.00;7.00;;;;;19.59;58.28;101004.28;4956184;28;45572;-68
2022/05/17 01:43:01;;;;;;;;;7.00;7.00;;;;;19.58;57.79;101000.78;4956054;28;46089;-68
2022/05/17 01:45:27;;;;;;;;;7.00;7.00;;;;;19.52;58.43;100994.06;4938147;28;45341;-68
2022/05/17 01:47:52;;;;;;;;;6.00;6.00;;;;;19.52;58.46;101001.22;4938837;28;45285;-68
2022/05/17 01:50:18;;;;;;;;;6.75;6.75;;;;;19.49;58.63;101002.28;4957494;28;45352;-68
2022/05/17 01:52:44;;;;;;;;;8.75;7.25;;;;;19.45;58.86;100997.28;4957229;28;46666;-68
2022/05/17 01:55:11;;;;;;;;;8.75;7.50;;;;;19.46;58.92;101002.50;4957860;28;45326;-66
2022/05/17 01:57:37;;;;;;;;;9.50;7.75;;;;;19.42;58.72;101004.56;4938135;28;45360;-68
2022/05/17 02:00:05;;;;;;;;;9.75;9.00;;;;;19.34;58.80;100987.38;4956356;28;45572;-69
2022/05/17 02:02:31;;;;;;;;;7.25;7.25;;;;;19.38;58.73;101002.19;4938167;28;47274;-65
2022/05/17 02:04:57;;;;;;;;;7.75;7.75;;;;;19.34;58.94;100998.03;4938025;28;46061;-67
2022/05/17 02:07:22;;;;;;;;;6.50;6.50;;;;;19.34;59.01;101000.72;4955610;28;45335;-67
2022/05/17 02:09:47;;;;;;;;;9.00;7.75;;;;;19.34;59.29;101001.59;4955528;28;45255;-67
2022/05/17 02:12:13;;;;;;;;;16.00;11.00;;;;;19.32;58.97;101005.31;4955420;28;46048;-69
2022/05/17 02:14:38;;;;;;;;;6.25;6.25;;;;;19.27;58.77;101025.16;4955668;28;45314;-68
2022/05/17 02:17:04;;;;;;;;;6.00;6.00;;;;;19.26;58.94;101039.44;4955705;28;45419;-68
2022/05/17 02:19:30;;;;;;;;;8.00;6.75;;;;;19.26;59.22;101020.78;4955619;28;45562;-66
2022/05/17 02:21:56;;;;;;;;;9.00;9.00;;;;;19.27;59.37;101019.81;4955381;28;47111;-68
2022/05/17 02:24:22;;;;;;;;;7.25;7.25;;;;;19.32;58.87;101037.31;4955279;28;45265;-69
2022/05/17 02:26:48;;;;;;;;;6.50;5.25;;;;;19.36;58.88;101028.13;4937989;28;45375;-66
2022/05/17 02:29:13;;;;;;;;;8.25;7.75;;;;;19.37;58.41;101029.84;4955719;28;45581;-66
2022/05/17 02:31:39;;;;;;;;;7.50;7.50;;;;;19.35;58.83;101016.63;4956661;28;45423;-67
2022/05/17 02:34:04;;;;;;;;;9.25;7.50;;;;;19.37;58.35;101027.16;4955837;28;45444;-68
2022/05/17 02:36:30;;;;;;;;;9.50;7.75;;;;;19.36;58.82;101042.34;4956515;28;45821;-68
2022/05/17 02:38:56;;;;;;;;;6.00;6.00;;;;;19.34;58.42;101036.25;4956282;28;45438;-68
2022/05/17 02:41:23;;;;;;;;;8.25;8.25;;;;;19.33;58.55;101029.22;4955230;28;45346;-66
2022/05/17 02:43:49;;;;;;;;;5.50;4.25;;;;;19.33;58.72;101023.00;4955444;28;45502;-67
2022/05/17 02:46:14;;;;;;;;;7.00;7.00;;;;;19.32;58.35;101037.31;4956247;28;45343;-68
2022/05/17 02:48:40;;;;;;;;;8.50;6.25;;;;;19.33;58.35;101039.88;4956402;28;45359;-70
2022/05/17 02:51:13;;;;;;;;;7.00;6.00;;;;;19.32;58.74;101030.19;4957150;28;45343;-69
2022/05/17 02:53:39;;;;;;;;;7.00;7.00;;;;;19.31;58.37;101041.81;4957488;28;45268;-68
2022/05/17 02:56:05;;;;;;;;;10.00;7.00;;;;;19.30;58.33;101042.78;4956564;28;45293;-71
2022/05/17 02:58:31;;;;;;;;;8.00;7.00;;;;;19.26;57.96;101022.59;4956373;28;45227;-67
2022/05/17 03:00:57;;;;;;;;;8.00;7.25;;;;;19.25;58.50;101027.06;4959023;28;46382;-68
2022/05/17 03:03:22;;;;;;;;;6.75;6.75;;;;;19.24;58.61;101029.88;4957250;28;45516;-69
2022/05/17 03:05:48;;;;;;;;;7.50;6.75;;;;;19.23;58.25;101031.66;4958957;28;45403;-72
2022/05/17 03:08:13;;;;;;;;;5.50;5.50;;;;;19.22;57.96;101026.44;4958972;28;45561;-68
2022/05/17 03:10:38;;;;;;;;;8.00;6.50;;;;;19.23;58.26;101031.66;4958810;28;45579;-69
2022/05/17 03:13:04;;;;;;;;;6.00;6.00;;;;;19.22;58.13;101026.44;4960041;28;45326;-68
2022/05/17 03:15:30;;;;;;;;;6.25;6.25;;;;;19.21;58.37;101016.75;4961436;28;45370;-67
2022/05/17 03:17:55;;;;;;;;;7.50;6.50;;;;;19.21;58.38;101019.41;4964649;28;45538;-69
2022/05/17 03:20:21;;;;;;;;;8.25;7.00;;;;;19.21;57.84;101016.75;4961837;28;46135;-67
2022/05/17 03:22:46;;;;;;;;;8.75;6.75;;;;;19.18;58.28;101008.97;4941091;28;45300;-65
2022/05/17 03:25:12;;;;;;;;;7.25;6.75;;;;;19.20;58.13;101017.69;4958167;28;45341;-69
2022/05/17 03:27:37;;;;;;;;;5.25;5.25;;;;;19.17;57.85;101017.91;4958558;28;45361;-67
2022/05/17 03:30:04;;;;;;;;;8.00;6.25;;;;;19.18;57.82;101023.13;4957630;28;46187;-66
2022/05/17 03:32:29;;;;;;;;;7.00;7.00;;;;;19.19;58.07;101026.66;4958413;28;45417;-68
2022/05/17 03:34:54;;;;;;;;;6.50;6.00;;;;;19.15;57.66;101011.84;4958436;28;45330;-66
2022/05/17 03:37:20;;;;;;;;;6.00;6.00;;;;;19.10;57.93;101010.34;4957946;28;45500;-65
2022/05/17 03:39:45;;;;;;;;;7.50;7.00;;;;;19.12;58.09;101016.44;4957967;28;46209;-67
2022/05/17 03:42:12;;;;;;;;;4.75;4.75;;;;;19.11;58.68;101014.72;4958820;28;45307;-66
2022/05/17 03:44:38;;;;;;;;;8.00;7.00;;;;;19.10;58.69;101013.00;4958973;28;45450;-68
2022/05/17 03:47:06;;;;;;;;;9.75;9.50;;;;;19.05;58.59;101004.44;4958449;28;45454;-68
2022/05/17 03:49:32;;;;;;;;;10.25;7.50;;;;;19.08;58.80;101009.56;4957674;28;47199;-68
2022/05/17 03:51:57;;;;;;;;;10.75;9.50;;;;;19.06;58.82;101008.00;4957732;28;45329;-67
2022/05/17 03:54:23;;;;;;;;;9.50;9.00;;;;;19.05;58.77;101008.94;4958310;28;45248;-67
2022/05/17 03:56:49;;;;;;;;;8.00;8.00;;;;;19.05;59.22;101009.78;4957967;28;45537;-67
2022/05/17 03:59:14;;;;;;;;;10.25;9.00;;;;;18.98;59.52;101003.16;4958609;28;46182;-66
2022/05/17 04:01:40;;;;;;;;;5.25;4.00;;;;;19.02;59.05;101011.81;4958434;28;45205;-67
2022/05/17 04:04:05;;;;;;;;;9.75;8.00;;;;;19.02;59.38;101014.50;4958724;28;45236;-69
2022/05/17 04:06:31;;;;;;;;;9.00;9.00;;;;;19.00;59.28;101014.59;4958817;28;45609;-68
2022/05/17 04:08:56;;;;;;;;;10.00;10.00;;;;;18.98;59.71;101008.50;4957831;28;45339;-66
2022/05/17 04:11:22;;;;;;;;;11.00;9.00;;;;;18.96;60.14;101013.06;4957336;28;45241;-66
2022/05/17 04:13:47;;;;;;;;;9.25;8.75;;;;;18.93;59.81;101023.94;4959093;28;45343;-70
2022/05/17 04:16:12;;;;;;;;;11.25;9.00;;;;;18.88;60.10;101018.94;4957623;28;46110;-66
2022/05/17 04:18:38;;;;;;;;;10.00;9.00;;;;;18.86;60.75;101019.97;4957118;28;45867;-69
2022/05/17 04:21:04;;;;;;;;;11.25;9.50;;;;;18.89;60.51;101022.44;4957040;28;45326;-69
2022/05/17 04:23:30;;;;;;;;;14.00;9.25;;;;;18.85;60.85;101013.81;4957160;28;45451;-70
2022/05/17 04:25:56;;;;;;;;;9.25;8.25;;;;;18.88;60.81;101015.41;4956024;28;45508;-69
2022/05/17 04:28:22;;;;;;;;;10.00;10.00;;;;;18.88;60.53;101012.72;4956373;28;46326;-69
2022/05/17 04:30:48;;;;;;;;;10.25;9.75;;;;;18.96;61.04;101027.25;4957010;28;45415;-69
2022/05/17 04:33:13;;;;;;;;;9.25;9.25;;;;;18.98;60.64;101021.84;4958986;28;45303;-69
2022/05/17 04:35:40;;;;;;;;;9.25;7.50;;;;;19.02;60.50;101035.81;4958043;28;45493;-67
2022/05/17 04:38:07;;;;;;;;;6.75;6.00;;;;;19.02;60.27;101031.31;4957052;28;46435;-68
2022/05/17 04:40:33;;;;;;;;;7.00;7.00;;;;;19.05;60.36;101040.94;4957889;28;45266;-69
2022/05/17 04:42:58;;;;;;;;;8.50;8.00;;;;;19.04;60.45;101034.75;4958332;28;45358;-66
2022/05/17 04:45:24;;;;;;;;;12.00;12.00;;;;;18.99;60.43;101026.22;4957524;28;45421;-68
2022/05/17 04:47:50;;;;;;;;;14.25;12.00;;;;;19.08;60.73;101030.91;4940722;28;48092;-66
2022/05/17 04:50:18;;;;;;;;;10.25;10.25;;;;;19.10;60.17;101030.81;4957434;28;45428;-66
2022/05/17 04:52:44;;;;;;;;;9.75;8.00;;;;;19.04;60.11;101034.75;4958502;28;45248;-67
2022/05/17 04:55:11;;;;;;;;;8.50;8.00;;;;;19.09;60.20;101032.63;4958355;28;45487;-66
2022/05/17 04:57:38;;;;;;;;;13.25;10.50;;;;;19.09;60.83;101035.31;4957404;28;45301;-67
2022/05/17 05:00:06;;;;;;;;;14.75;14.00;;;;;19.14;60.90;101042.13;4956715;28;45352;-68
2022/05/17 05:02:31;;;;;;;;;16.25;13.25;;;;;19.11;61.58;101041.38;4939846;28;45363;-68
2022/05/17 05:04:57;;;;;;;;;9.00;9.00;;;;;19.22;60.42;101045.13;4957267;28;45405;-70
2022/05/17 05:07:22;;;;;;;;;11.00;11.00;;;;;19.33;60.31;101042.56;4958019;28;45465;-66
2022/05/17 05:09:48;;;;;;;;;11.00;10.50;;;;;19.53;60.49;101048.28;4957914;28;45450;-66
2022/05/17 05:12:14;;;;;;;;;16.50;11.00;;;;;19.74;59.93;101045.91;4956651;28;45370;-67
2022/05/17 05:14:39;;;;;;;;;14.25;11.00;;;;;19.97;59.79;101051.44;4957285;28;45607;-70
2022/05/17 05:17:05;;;;;;;;;9.00;8.00;;;;;20.18;58.49;101059.72;4956602;28;45184;-69
2022/05/17 05:19:30;;;;;;;;;16.25;14.00;;;;;20.38;58.35;101058.22;4956130;28;45340;-70
2022/05/17 05:21:55;;;;;;;;;12.00;10.25;;;;;20.52;58.25;101065.22;4955703;28;45799;-70
2022/05/17 05:24:20;;;;;;;;;10.00;10.00;;;;;20.65;57.62;101069.63;4956707;28;45598;-68
2022/05/17 05:26:46;;;;;;;;;10.50;9.00;;;;;20.73;57.51;101069.91;4956117;28;54629;-68
2022/05/17 05:29:11;;;;;;;;;12.00;10.50;;;;;20.82;57.68;101066.56;4938569;28;45412;-66
2022/05/17 05:31:36;;;;;;;;;10.75;8.00;;;;;20.93;57.02;101068.44;4957668;28;45283;-67
2022/05/17 05:34:02;;;;;;;;;9.75;8.75;;;;;21.06;56.61;101062.97;4957706;28;45604;-67
2022/05/17 05:36:28;;;;;;;;;9.00;9.00;;;;;21.19;56.52;101072.72;4955969;28;45650;-68
2022/05/17 05:38:54;;;;;;;;;16.50;14.25;;;;;21.27;56.53;101075.69;4955572;28;45373;-65
2022/05/17 05:41:19;;;;;;;;;11.75;11.75;;;;;21.33;56.29;101071.66;4955518;28;45527;-65
2022/05/17 05:43:45;;;;;;;;;9.00;8.75;;;;;21.36;55.89;101074.97;4956003;28;45275;-67
2022/05/17 05:46:10;;;;;;;;;23.75;18.25;;;;;21.37;55.72;101067.78;4937847;28;45962;-66
2022/05/17 05:48:36;;;;;;;;;13.25;12.25;;;;;21.31;56.25;101077.16;4956011;28;45343;-68
2022/05/17 05:51:02;;;;;;;;;17.75;16.25;;;;;21.25;56.05;101078.47;4956228;28;45374;-65
2022/05/17 05:53:28;;;;;;;;;13.25;9.00;;;;;21.16;55.83;101077.34;4959413;28;44806;-69
2022/05/17 05:56:03;;;;;;;;;12.50;11.50;;;;;21.12;56.31;101089.25;4957113;28;45987;-67
2022/05/17 05:58:34;;;;;;;;;11.00;10.25;;;;;21.02;56.01;101081.09;4955725;28;45375;-66
2022/05/17 06:01:00;;;;;;;;;11.75;10.50;;;;;20.97;56.39;101085.94;4938202;28;45470;-65
2022/05/17 06:03:27;;;;;;;;;15.25;14.00;;;;;20.94;56.11;101091.53;4955256;28;45569;-66
2022/05/17 06:05:53;;;;;;;;;12.25;12.25;;;;;20.92;56.75;101097.94;4954511;28;46042;-68
2022/05/17 06:08:19;;;;;;;;;10.00;9.00;;;;;20.87;56.57;101095.66;4954968;28;45216;-66
2022/05/17 06:10:44;;;;;;;;;11.75;11.75;;;;;20.85;56.68;101092.22;4955022;28;45525;-69
2022/05/17 06:13:13;;;;;;;;;11.50;11.50;;;;;20.84;56.85;101090.53;4954258;28;45586;-67
2022/05/17 06:15:40;;;;;;;;;16.25;13.00;;;;;20.85;56.52;101086.88;4955917;28;45483;-68
2022/05/17 06:18:07;;;;;;;;;12.00;11.75;;;;;20.83;56.71;101083.47;4956194;28;45322;-67
2022/05/17 06:20:33;;;;;;;;;17.00;14.50;;;;;20.84;56.62;101088.69;4955249;28;45481;-67
2022/05/17 06:22:58;;;;;;;;;17.50;15.75;;;;;20.83;56.92;101088.81;4956017;28;45271;-68
2022/05/17 06:25:24;;;;;;;;;11.75;10.00;;;;;20.89;56.21;101091.03;4955254;28;46058;-67
2022/05/17 06:27:50;;;;;;;;;11.25;11.25;;;;;20.93;55.70;101091.63;4956487;28;46075;-68
2022/05/17 06:30:17;;;;;;;;;13.00;10.75;;;;;20.98;55.81;101086.78;4969214;28;45483;-60
2022/05/17 06:32:43;;;;;;;;;14.50;13.00;;;;;21.02;55.51;101093.59;4958286;28;45345;-60
2022/05/17 06:35:10;;;;;;;;;10.25;10.25;;;;;21.05;55.09;101096.03;4960120;28;46040;-61
2022/05/17 06:37:37;;;;;;;;;12.00;12.00;;;;;21.10;54.85;101093.88;4964784;28;45333;-61
2022/05/17 06:40:04;;;;;;;;;17.00;15.00;;;;;21.09;54.66;101089.47;4978020;28;45274;-61
2022/05/17 06:42:30;;;;;;;;;11.00;11.00;;;;;21.14;54.70;101089.97;4977485;28;45250;-60
2022/05/17 06:44:56;;;;;;;;;14.00;12.00;;;;;21.16;54.91;101079.19;4977932;28;45830;-61
2022/05/17 06:47:22;;;;;;;;;14.75;13.75;;;;;21.24;54.86;101086.63;4978553;28;45397;-60
2022/05/17 06:49:47;;;;;;;;;13.25;13.00;;;;;21.29;54.58;101092.47;4942171;28;45624;-62
2022/05/17 06:52:13;;;;;;;;;11.50;11.50;;;;;21.33;54.28;101082.38;4960313;28;45590;-60
2022/05/17 06:54:40;;;;;;;;;14.75;12.25;;;;;21.37;54.23;101079.34;4957618;28;46008;-62
2022/05/17 06:57:07;;;;;;;;;9.50;9.50;;;;;21.43;53.20;101086.88;4959017;28;45503;-62
2022/05/17 06:59:34;;;;;;;;;11.25;8.50;;;;;21.50;53.51;101086.41;4974494;28;45286;-62
2022/05/17 07:02:00;;;;;;;;;9.00;9.00;;;;;21.53;52.78;101084.31;4978742;28;45238;-64
2022/05/17 07:04:29;;;;;;;;;12.00;12.00;;;;;21.59;52.97;101086.50;4973335;28;45505;-63
2022/05/17 07:06:55;;;;;;;;;11.25;11.25;;;;;21.67;52.66;101087.75;4949341;28;45738;-63
2022/05/17 07:09:22;;;;;;;;;9.25;8.00;;;;;21.73;52.10;101087.28;4965052;28;45377;-59
2022/05/17 07:14:40;;;;;;;;;10.00;8.50;;;;;21.81;51.62;101074.16;4930873;28;45356;-59
2022/05/17 07:17:17;;;;;;;;;12.25;12.25;;;;;21.94;51.90;101087.38;4957928;28;45310;-59
2022/05/17 07:19:44;;;;;;;;;10.50;10.50;;;;;22.00;51.12;101086.06;4959808;28;45282;-60
2022/05/17 07:22:11;;;;;;;;;6.50;6.25;;;;;22.10;50.47;101088.81;4957879;28;45253;-60
2022/05/17 07:24:37;;;;;;;;;7.50;6.00;;;;;22.13;50.55;101080.53;4956361;28;47337;-60
2022/05/17 07:27:04;;;;;;;;;6.50;6.50;;;;;22.25;49.55;101079.53;4940167;28;45419;-59
2022/05/17 07:29:30;;;;;;;;;5.75;5.75;;;;;22.31;49.53;101081.72;4940885;28;45458;-61
2022/05/17 07:31:56;;;;;;;;;8.00;6.25;;;;;22.36;49.48;101083.19;4958315;28;45303;-58
2022/05/17 07:34:22;;;;;;;;;6.25;6.25;;;;;22.42;48.78;101088.88;4958576;28;45952;-61
2022/05/17 07:36:48;;;;;;;;;6.75;6.75;;;;;22.47;48.85;101083.16;4957568;28;45395;-60
2022/05/17 07:39:13;;;;;;;;;6.25;6.25;;;;;22.52;49.23;101088.13;4957706;28;45232;-59
2022/05/17 07:41:40;;;;;;;;;10.75;9.50;;;;;22.44;48.61;101061.94;4958489;28;45700;-59
2022/05/17 07:44:06;;;;;;;;;8.00;8.00;;;;;;;;4955969;28;46672;-60
2022/05/17 07:46:31;;;;;;;;;7.50;6.00;;;;;22.82;48.46;101089.25;4957147;28;45304;-57
2022/05/17 07:48:57;;;;;;;;;8.00;8.00;;;;;22.90;47.65;101090.28;4957524;28;45244;-57
2022/05/17 07:51:23;;;;;;;;;8.50;8.25;;;;;23.00;47.60;101085.00;4957765;28;45568;-57
2022/05/17 07:53:48;;;;;;;;;10.25;7.50;;;;;23.10;47.46;101085.03;4957545;28;45668;-60
2022/05/17 07:56:14;;;;;;;;;9.50;8.00;;;;;23.18;46.93;101085.25;4957341;28;45520;-59
2022/05/17 07:58:40;;;;;;;;;10.75;7.50;;;;;23.20;46.30;101085.94;4957581;28;45338;-57
2022/05/17 08:01:05;;;;;;;;;8.00;6.50;;;;;23.32;46.25;101094.81;4957641;28;45441;-56
2022/05/17 08:03:31;;;;;;;;;7.25;6.25;;;;;23.39;45.85;101092.47;4957223;28;45447;-58
2022/05/17 08:05:56;;;;;;;;;7.00;6.00;;;;;23.53;45.68;101096.63;4957330;28;45357;-58
2022/05/17 08:08:22;;;;;;;;;5.50;4.00;;;;;23.61;43.71;101104.84;4959825;28;45288;-58
2022/05/17 08:10:47;;;;;;;;;9.00;8.00;;;;;23.71;44.21;101094.16;4959460;28;45355;-58
2022/05/17 08:13:14;;;;;;;;;5.25;5.25;;;;;23.80;44.65;101099.72;4959058;28;46020;-59
2022/05/17 08:15:39;;;;;;;;;6.25;5.00;;;;;23.89;44.09;101098.88;4956968;28;45341;-59
2022/05/17 08:18:05;;;;;;;;;5.50;3.00;;;;;23.91;42.64;101095.09;4956690;28;45303;-58
2022/05/17 08:20:31;;;;;;;;;4.75;4.75;;;;;23.96;42.77;101100.03;4957565;28;45240;-58
2022/05/17 08:22:57;;;;;;;;;9.00;6.50;;;;;24.05;42.59;101088.50;4958027;28;46198;-57
2022/05/17 08:28:07;;;;;;;;;6.00;5.75;;;;;24.27;41.22;101096.47;4958086;28;45259;-61
2022/05/17 08:30:34;;;;;;;;;2.00;2.00;;;;;24.33;40.41;101090.53;4958312;28;45489;-60
2022/05/17 08:33:18;;;;;;;;;4.75;3.25;;;;;24.40;40.91;101091.69;4956548;28;46147;-61
2022/05/17 08:35:53;;;;;;;;;4.00;4.00;;;;;24.49;41.20;101093.53;4938713;28;45449;-60
2022/05/17 08:38:27;;;;;;;;;5.50;5.50;;;;;24.57;40.59;101087.44;4957035;28;45366;-59
2022/05/17 08:41:05;;;;;;;;;3.00;3.00;;;;;24.67;39.40;101092.81;4957093;28;45453;-59
2022/05/17 08:44:02;;;;;;;;;3.50;2.00;;;;;24.73;38.00;101086.03;4956384;28;46954;-60
2022/05/17 08:46:45;;;;;;;;;6.50;5.00;;;;;24.79;38.63;101085.50;4956204;28;45374;-57
2022/05/17 08:49:31;;;;;;;;;5.00;4.00;;;;;24.87;38.18;101082.06;4956401;28;45261;-59
2022/05/17 08:52:07;;;;;;;;;3.75;3.00;;;;;24.93;36.45;101082.34;4957068;28;45386;-58
2022/05/17 08:54:43;;;;;;;;;3.25;3.25;;;;;25.01;37.09;101084.34;4954765;28;46188;-60
2022/05/17 08:57:30;;;;;;;;;4.25;3.00;;;;;25.08;37.27;101084.59;4937223;28;45320;-58
2022/05/17 08:59:59;;;;;;;;;3.00;3.00;;;;;25.06;36.15;101082.06;4956799;28;45280;-59
2022/05/17 09:03:08;;;;;;;;;4.00;3.25;;;;;25.08;36.44;101073.84;4956788;28;45324;-61
2022/05/17 09:06:01;;;;;;;;;4.00;4.00;;;;;25.22;36.82;101078.75;4939185;28;45464;-57
2022/05/17 09:08:37;;;;;;;;;0.25;0.25;;;;;25.32;35.66;101081.44;4956720;28;45334;-58
2022/05/17 09:11:14;;;;;;;;;4.00;4.00;;;;;25.43;35.01;101079.53;4956108;28;45275;-60
2022/05/17 09:13:45;;;;;;;;;0.00;0.00;;;;;25.49;32.94;101084.38;4956489;28;45288;-58
2022/05/17 09:16:13;;;;;;;;;2.00;1.00;;;;;25.51;33.27;101083.25;4955915;28;46275;-58
2022/05/17 09:18:39;;;;;;;;;2.25;1.75;;;;;25.58;33.43;101077.25;4955802;28;45403;-60
2022/05/17 09:21:05;;;;;;;;;2.25;1.00;;;;;25.63;32.63;101075.81;4955729;28;45390;-59
2022/05/17 09:23:30;;;;;;;;;2.00;2.00;;;;;25.65;32.41;101070.28;4955956;28;45245;-59
2022/05/17 09:26:00;;;;;;;;;2.00;2.00;;;;;25.76;31.19;101077.31;4938356;28;47361;-59
2022/05/17 09:28:51;;;;;;;;;5.25;5.25;;;;;25.81;31.46;101075.88;4938209;28;45240;-57
2022/05/17 09:31:23;;;;;;;;;3.00;2.50;;;;;25.88;30.63;101069.88;4956093;28;45324;-64
2022/05/17 09:33:50;;;;;;;;;1.00;1.00;;;;;25.93;30.46;101070.28;4955993;28;45513;-59
2022/05/17 09:36:18;;;;;;;;;4.00;2.25;;;;;26.00;30.14;101074.06;4955731;28;45358;-58
2022/05/17 09:38:47;;;;;;;;;2.50;2.00;;;;;26.06;31.33;101069.94;4955771;28;45378;-59
2022/05/17 09:41:16;;;;;;;;;2.00;2.00;;;;;26.10;31.18;101064.06;4955641;28;45477;-60
2022/05/17 09:43:51;;;;;;;;;2.00;0.75;;;;;26.16;31.77;101061.78;4955968;28;45648;-58
2022/05/17 09:46:27;;;;;;;;;2.25;2.25;;;;;26.23;31.43;101065.56;4957261;28;46096;-64
2022/05/17 09:54:39;;;;;;;;;5.00;5.00;;;;;26.26;30.27;101054.47;4955896;28;45347;-61
2022/05/17 09:57:14;;;;;;;;;5.00;5.00;;;;;26.28;31.11;101055.16;4939986;28;46113;-60
2022/05/17 09:59:41;;;;;;;;;6.00;6.00;;;;;26.39;31.98;101063.03;4957229;28;45330;-60
2022/05/17 10:02:28;;;;;;;;;6.50;6.00;;;;;26.53;31.71;101056.25;4955377;28;45282;-60
2022/05/17 10:04:53;;;;;;;;;0.75;0.75;;;;;26.59;30.82;101060.19;4955790;28;45923;-60
2022/05/17 10:07:21;;;;;;;;;2.00;1.25;;;;;26.64;30.69;101049.78;4954932;28;46029;-61
2022/05/17 10:09:47;;;;;;;;;4.25;2.00;;;;;26.74;30.62;101063.16;4955605;28;45354;-61
2022/05/17 10:12:41;;;;;;;;;2.25;2.25;;;;;26.74;30.14;101048.84;4937905;28;45278;-58
2022/05/17 10:15:10;;;;;;;;;2.00;2.00;;;;;26.86;30.17;101058.41;4951259;28;45526;-60
2022/05/17 10:17:49;;;;;;;;;4.00;3.00;;;;;26.92;30.82;101057.78;4956815;28;46054;-61
2022/05/17 10:20:26;;;;;;;;;1.00;1.00;;;;;26.98;30.75;101042.78;4955321;28;45465;-60
2022/05/17 10:23:00;;;;;;;;;1.00;1.00;;;;;27.03;30.78;101048.56;4955281;28;45455;-60
2022/05/17 10:25:47;;;;;;;;;0.00;0.00;;;;;27.05;30.38;101041.16;4955787;28;45361;-60
2022/05/17 10:28:26;;;;;;;;;4.00;3.00;;;;;27.05;30.89;101040.31;4954465;28;45474;-59
2022/05/17 10:30:57;;;;;;;;;3.50;3.00;;;;;27.08;30.49;101029.19;4955280;28;45324;-59
2022/05/17 10:33:50;;;;;;;;;11.00;7.00;;;;;27.17;30.75;101032.78;4937442;28;45342;-60
2022/05/17 10:36:23;;;;;;;;;4.00;4.00;;;;;27.24;31.55;101020.34;4955571;28;45345;-60
2022/05/17 10:39:21;;;;;;;;;3.75;3.75;;;;;27.34;31.15;101021.06;4955169;28;46366;-60
2022/05/17 10:41:47;;;;;;;;;5.00;4.50;;;;;27.46;31.18;101015.38;4935525;28;45368;-61
2022/05/17 10:44:19;;;;;;;;;5.75;5.75;;;;;27.59;32.02;101017.66;4937124;28;45493;-61
2022/05/17 10:46:49;;;;;;;;;20.50;20.25;;;;;27.62;31.33;101011.94;4954585;28;45366;-60
2022/05/17 10:49:45;;;;;;;;;12.50;12.50;;;;;27.67;30.94;101017.69;4954676;28;46811;-60
2022/05/17 10:52:31;;;;;;;;;4.00;2.50;;;;;27.67;30.83;101021.22;4954203;28;45325;-60
2022/05/17 10:55:17;;;;;;;;;6.00;4.25;;;;;27.72;30.93;101009.06;4937151;28;45312;-61
2022/05/17 10:57:45;;;;;;;;;5.50;5.50;;;;;27.75;30.29;101000.63;4937347;28;45236;-59
2022/05/17 11:00:18;;;;;;;;;5.50;5.50;;;;;27.80;30.79;100999.16;4954495;28;45485;-58
2022/05/17 11:02:58;;;;;;;;;6.00;5.00;;;;;27.91;30.08;100994.44;4954474;28;45486;-61
2022/05/17 11:05:37;;;;;;;;;13.25;13.25;;;;;27.93;30.90;101008.63;4954576;28;45406;-59
2022/05/17 11:08:46;;;;;;;;;4.25;4.00;;;;;27.93;30.64;101003.22;4954972;28;45437;-59
2022/05/17 11:11:23;;;;;;;;;5.00;3.25;;;;;27.97;30.87;100991.06;4951426;28;46419;-59
2022/05/17 11:13:58;;;;;;;;;2.50;2.50;;;;;28.05;30.11;100993.78;4954164;28;45362;-59
2022/05/17 11:16:38;;;;;;;;;3.75;2.00;;;;;28.09;30.71;100995.13;4936977;28;45244;-62
2022/05/17 11:19:17;;;;;;;;;1.50;1.50;;;;;28.11;31.53;100984.16;4955387;28;46043;-60
2022/05/17 11:21:52;;;;;;;;;5.00;5.00;;;;;28.08;31.19;100979.94;4957693;28;46094;-61
2022/05/17 11:24:53;;;;;;;;;7.00;7.00;;;;;28.23;31.81;100984.69;4940812;28;45448;-62
2022/05/17 11:27:39;;;;;;;;;5.25;5.25;;;;;28.48;30.85;100977.44;4957890;28;45418;-59
2022/05/17 11:30:11;;;;;;;;;2.00;2.00;;;;;28.70;30.81;100967.75;4958136;28;45427;-57
2022/05/17 11:32:40;;;;;;;;;4.00;2.50;;;;;28.83;30.76;100964.53;4957496;28;45461;-58
2022/05/17 11:35:31;;;;;;;;;2.00;2.00;;;;;28.87;30.07;100965.06;4957559;28;45398;-61
2022/05/17 11:37:57;;;;;;;;;4.75;3.75;;;;;28.93;29.97;100960.78;4940140;28;45318;-58
2022/05/17 11:40:47;;;;;;;;;7.75;5.25;;;;;28.84;30.46;100968.09;4957811;28;45291;-58
2022/05/17 11:46:03;;;;;;;;;2.00;2.00;;;;;28.83;30.12;100955.59;4958119;28;45438;-62
2022/05/17 11:48:53;;;;;;;;;3.00;2.75;;;;;29.04;29.79;100951.47;4958539;28;45477;-59